Sky Ranch, South Dakota
Current Conditions -  °F | °C
As of 6:51 PM on Friday 24 Oct 2014 (Local Time) from KBHK Reporting Station
Clear Clear  
Wind Chill: 44°   Ceiling: Unl
Heat Index: 49°   Visibility: 10mi
Dew Point: 29°   Wind: 12mph
Humidity: 46%   Direction: 260°W
Pressure: 30.08"   Gusts: NA
Location:  45.6592°N, 103.944°W
Report Text: KBHK 250051Z AUTO 26010KT 10SM CLR 09/M02 A3008 RMK AO2 SLP189 T00941017
Loading
Personal Weather Stations






























Interactive Weather Map
Tropical Storm Tracking
New forecast layout! Learn more

10-Day Weather Forecast

Advertisements
Track Severe Weather on mobile